createdAt,value
2018-11-26T00:01:48.671Z,20.50
2018-11-26T00:04:16.684Z,20.03
2018-11-26T00:06:44.731Z,21.23
2018-11-26T00:09:12.791Z,18.17
2018-11-26T00:11:40.818Z,19.97
2018-11-26T00:14:08.878Z,19.40
2018-11-26T00:16:36.893Z,20.97
2018-11-26T00:19:05.466Z,21.13
2018-11-26T00:21:33.526Z,19.67
2018-11-26T00:24:01.566Z,19.30
2018-11-26T00:26:29.626Z,19.30
2018-11-26T00:28:57.651Z,20.10
2018-11-26T00:31:25.713Z,18.97
2018-11-26T00:33:53.761Z,18.63
2018-11-26T00:36:21.811Z,18.50
2018-11-26T00:38:49.883Z,18.87
2018-11-26T00:41:17.933Z,19.67
2018-11-26T00:43:45.958Z,18.80
2018-11-26T00:46:14.004Z,19.20
2018-11-26T00:48:42.031Z,19.00
2018-11-26T00:51:10.090Z,18.27
2018-11-26T00:53:38.140Z,18.90
2018-11-26T00:56:06.252Z,18.30
2018-11-26T00:58:34.310Z,19.37
2018-11-26T01:01:02.339Z,18.87
2018-11-26T01:03:30.398Z,18.77
2018-11-26T01:05:58.460Z,18.17
2018-11-26T01:08:26.503Z,18.57
2018-11-26T01:10:54.570Z,19.20
2018-11-26T01:13:22.620Z,17.30
2018-11-26T01:15:50.688Z,18.73
2018-11-26T01:18:18.735Z,19.47
2018-11-26T01:20:46.764Z,18.60
2018-11-26T01:23:14.807Z,19.30
2018-11-26T01:25:42.887Z,19.13
2018-11-26T01:28:10.918Z,17.97
2018-11-26T01:30:38.985Z,18.77
2018-11-26T01:33:07.030Z,17.60
2018-11-26T01:35:35.104Z,18.00
2018-11-26T01:38:03.173Z,15.80
2018-11-26T01:40:36.797Z,18.30
2018-11-26T01:43:04.907Z,17.77
2018-11-26T01:45:33.020Z,17.20
2018-11-26T01:48:01.101Z,17.23
2018-11-26T01:50:29.203Z,16.20
2018-11-26T01:52:57.282Z,16.83
2018-11-26T01:55:25.361Z,16.67
2018-11-26T01:57:53.443Z,15.80
2018-11-26T02:00:24.003Z,17.10
2018-11-26T02:02:51.929Z,16.57
2018-11-26T02:05:20.021Z,16.03
2018-11-26T02:07:48.091Z,15.23
2018-11-26T02:10:17.329Z,15.37
2018-11-26T02:12:45.397Z,13.70
2018-11-26T02:15:47.537Z,14.23
2018-11-26T02:18:15.600Z,15.03
2018-11-26T02:20:43.664Z,14.13
2018-11-26T02:23:11.775Z,13.57
2018-11-26T02:25:39.826Z,13.37
2018-11-26T02:28:07.903Z,13.77
2018-11-26T02:30:36.024Z,12.47
2018-11-26T02:33:04.105Z,12.63
2018-11-26T02:35:32.142Z,12.23
2018-11-26T02:38:00.182Z,11.33
2018-11-26T02:40:29.148Z,11.13
2018-11-26T02:42:57.183Z,11.73
2018-11-26T02:45:25.246Z,11.43
2018-11-26T02:47:53.290Z,12.07
2018-11-26T02:50:21.395Z,11.83
2018-11-26T02:52:49.404Z,10.93
2018-11-26T02:55:17.468Z,11.60
2018-11-26T02:57:45.521Z,11.23
2018-11-26T03:00:13.809Z,10.20
2018-11-26T03:02:41.838Z,10.73
2018-11-26T03:05:11.952Z,11.87
2018-11-26T03:07:40.019Z,10.93
2018-11-26T03:10:09.313Z,12.27
2018-11-26T03:12:38.093Z,12.07
2018-11-26T03:15:09.119Z,12.60
2018-11-26T03:17:37.496Z,11.73
2018-11-26T03:20:06.700Z,11.37
2018-11-26T03:22:34.774Z,12.27
2018-11-26T03:25:02.814Z,13.27
2018-11-26T03:27:30.889Z,12.97
2018-11-26T03:29:58.941Z,14.17
2018-11-26T03:32:27.033Z,13.53
2018-11-26T03:34:55.060Z,14.57
2018-11-26T03:37:23.109Z,15.70
2018-11-26T03:39:51.186Z,15.73
2018-11-26T03:42:19.381Z,16.30
2018-11-26T03:44:47.430Z,17.20
2018-11-26T03:47:15.480Z,15.87
2018-11-26T03:49:43.553Z,16.97
2018-11-26T03:52:11.592Z,17.87
2018-11-26T03:54:39.635Z,18.00
2018-11-26T03:57:07.652Z,17.87
2018-11-26T03:59:35.700Z,18.13
2018-11-26T04:02:03.736Z,17.43
2018-11-26T04:04:31.796Z,18.53
2018-11-26T04:06:59.876Z,19.87
2018-11-26T04:09:27.910Z,19.80
2018-11-26T04:11:55.964Z,18.47
2018-11-26T04:14:24.033Z,18.63
2018-11-26T04:16:52.063Z,19.40
2018-11-26T04:19:20.105Z,19.50
2018-11-26T04:21:48.114Z,21.03
2018-11-26T04:24:16.189Z,19.47
2018-11-26T04:26:44.235Z,20.17
2018-11-26T04:29:12.309Z,19.40
2018-11-26T04:31:40.327Z,20.30
2018-11-26T04:34:08.397Z,20.13
2018-11-26T04:36:36.448Z,21.40
2018-11-26T04:39:06.406Z,22.13
2018-11-26T04:41:34.439Z,21.83
2018-11-26T04:44:02.495Z,21.97
2018-11-26T04:46:30.510Z,22.63
2018-11-26T04:48:58.583Z,21.60
2018-11-26T04:51:26.613Z,21.10
2018-11-26T04:53:54.651Z,21.97
2018-11-26T04:56:22.691Z,21.17
2018-11-26T04:58:50.772Z,21.63
2018-11-26T05:01:18.813Z,21.50
2018-11-26T05:03:46.871Z,21.80
2018-11-26T05:06:14.926Z,19.80
2018-11-26T05:08:42.954Z,21.10
2018-11-26T05:11:11.775Z,20.20
2018-11-26T05:13:39.851Z,19.57
2018-11-26T05:16:07.892Z,19.80
2018-11-26T05:18:35.954Z,21.20
2018-11-26T05:21:04.009Z,20.00
2018-11-26T05:23:32.037Z,20.57
2018-11-26T05:26:00.077Z,20.27
2018-11-26T05:28:28.117Z,20.43
2018-11-26T05:30:56.139Z,22.93
2018-11-26T05:33:24.201Z,20.47
2018-11-26T05:35:52.261Z,21.20
2018-11-26T05:38:20.298Z,22.47
2018-11-26T05:40:48.334Z,21.80
2018-11-26T05:43:16.367Z,20.93
2018-11-26T05:45:44.417Z,20.83
2018-11-26T05:48:12.465Z,21.70
2018-11-26T05:50:40.499Z,20.63
2018-11-26T05:53:08.552Z,21.23
2018-11-26T05:55:36.592Z,22.40
2018-11-26T05:58:05.023Z,21.30
2018-11-26T06:00:34.110Z,21.77
2018-11-26T06:03:02.418Z,20.93
2018-11-26T06:05:30.444Z,21.50
2018-11-26T06:07:58.468Z,20.87
2018-11-26T06:10:26.493Z,20.93
2018-11-26T06:12:54.532Z,20.93
2018-11-26T06:15:22.568Z,21.93
2018-11-26T06:17:51.173Z,21.87
2018-11-26T06:20:19.761Z,21.93
2018-11-26T06:22:47.556Z,22.63
2018-11-26T06:25:17.819Z,22.10
2018-11-26T06:27:45.913Z,23.33
2018-11-26T06:30:15.111Z,20.60
2018-11-26T06:32:43.339Z,22.83
2018-11-26T06:35:14.719Z,23.27
2018-11-26T06:37:42.809Z,22.90
2018-11-26T06:40:11.788Z,21.37
2018-11-26T06:42:39.864Z,24.47
2018-11-26T06:45:17.573Z,22.50
2018-11-26T06:47:45.649Z,24.60
2018-11-26T06:50:16.407Z,23.30
2018-11-26T06:52:44.726Z,24.27
2018-11-26T06:55:18.054Z,22.47
2018-11-26T06:57:46.111Z,23.20
2018-11-26T07:00:16.295Z,23.70
2018-11-26T07:02:44.455Z,22.60
2018-11-26T07:05:14.818Z,21.63
2018-11-26T07:07:43.557Z,22.83
2018-11-26T07:10:12.449Z,21.67
2018-11-26T07:12:40.638Z,23.30
2018-11-26T07:15:16.904Z,21.50
2018-11-26T07:17:44.983Z,21.77
2018-11-26T07:20:13.928Z,23.37
2018-11-26T07:22:42.039Z,22.13
2018-11-26T07:25:16.478Z,21.80
2018-11-26T07:27:46.726Z,21.63
2018-11-26T07:30:16.957Z,20.50
2018-11-26T07:32:45.064Z,20.47
2018-11-26T07:35:13.715Z,22.53
2018-11-26T07:37:41.920Z,20.53
2018-11-26T07:40:11.292Z,20.43
2018-11-26T07:42:40.454Z,21.53
2018-11-26T07:45:11.923Z,21.57
2018-11-26T07:47:39.979Z,20.33
2018-11-26T07:50:10.636Z,19.70
2018-11-26T07:52:38.714Z,20.87
2018-11-26T07:55:09.545Z,19.83
2018-11-26T07:57:37.574Z,19.73
2018-11-26T08:00:09.569Z,20.00
2018-11-26T08:02:44.886Z,20.27
2018-11-26T08:05:14.035Z,19.60
2018-11-26T08:07:42.352Z,19.97
2018-11-26T08:10:12.420Z,20.77
2018-11-26T08:12:40.475Z,19.93
2018-11-26T08:15:13.165Z,18.77
2018-11-26T08:17:41.321Z,19.03
2018-11-26T08:20:09.818Z,19.13
2018-11-26T08:22:37.858Z,19.10
2018-11-26T08:25:08.421Z,19.40
2018-11-26T08:27:36.537Z,18.67
2018-11-26T08:30:09.673Z,19.83
2018-11-26T08:32:37.807Z,19.70
2018-11-26T08:35:05.862Z,18.90
2018-11-26T08:37:34.370Z,19.13
2018-11-26T08:40:07.934Z,18.93
2018-11-26T08:42:39.896Z,19.33
2018-11-26T08:45:14.252Z,18.80
2018-11-26T08:47:42.525Z,18.33
2018-11-26T08:50:10.650Z,18.47
2018-11-26T08:52:38.717Z,19.13
2018-11-26T08:55:07.919Z,19.70
2018-11-26T08:57:35.975Z,20.17
2018-11-26T09:00:04.320Z,18.93
2018-11-26T09:02:37.625Z,18.50
2018-11-26T09:05:11.572Z,18.83
2018-11-26T09:07:39.629Z,18.23
2018-11-26T09:10:08.288Z,17.93
2018-11-26T09:12:36.414Z,19.23
2018-11-26T09:15:04.554Z,18.03
2018-11-26T09:17:32.603Z,18.80
2018-11-26T09:20:00.638Z,18.63
2018-11-26T09:22:28.680Z,19.10
2018-11-26T09:24:56.729Z,18.60
2018-11-26T09:27:24.816Z,18.03
2018-11-26T09:29:52.849Z,18.93
2018-11-26T09:32:20.920Z,20.00
2018-11-26T09:34:48.963Z,19.67
2018-11-26T09:37:17.013Z,21.20
2018-11-26T09:39:45.053Z,20.70
2018-11-26T09:42:13.105Z,20.10
2018-11-26T09:44:41.128Z,20.90
2018-11-26T09:47:09.199Z,18.33
2018-11-26T09:49:37.265Z,19.07
2018-11-26T09:52:05.706Z,19.77
2018-11-26T09:54:33.738Z,21.00
2018-11-26T09:57:01.796Z,20.70
2018-11-26T09:59:29.847Z,19.97
2018-11-26T10:01:57.908Z,18.53
2018-11-26T10:04:25.973Z,18.40
2018-11-26T10:06:54.004Z,19.43
2018-11-26T10:09:22.044Z,18.47
2018-11-26T10:11:50.101Z,19.53
2018-11-26T10:14:18.163Z,20.17
2018-11-26T10:16:46.198Z,19.67
2018-11-26T10:19:14.343Z,19.47
2018-11-26T10:21:42.371Z,19.87
2018-11-26T10:24:10.403Z,19.33
2018-11-26T10:26:38.459Z,20.40
2018-11-26T10:29:06.507Z,20.07
2018-11-26T10:31:34.573Z,19.27
2018-11-26T10:34:02.621Z,20.00
2018-11-26T10:36:30.737Z,20.73
2018-11-26T10:38:58.775Z,21.93
2018-11-26T10:41:26.841Z,21.40
2018-11-26T10:43:54.908Z,20.50
2018-11-26T10:46:22.975Z,20.83
2018-11-26T10:48:51.135Z,19.90
2018-11-26T10:51:19.198Z,20.73
2018-11-26T10:53:47.256Z,21.00
2018-11-26T10:56:15.321Z,21.07
2018-11-26T10:58:43.370Z,21.30
2018-11-26T11:02:15.320Z,20.77
2018-11-26T11:04:47.577Z,20.93
2018-11-26T11:07:11.437Z,20.97
2018-11-26T11:09:39.529Z,20.10
2018-11-26T11:12:07.611Z,21.63
2018-11-26T11:14:35.680Z,21.63
2018-11-26T11:17:03.781Z,21.97
2018-11-26T11:19:31.859Z,19.97
2018-11-26T11:21:59.931Z,19.77
2018-11-26T11:24:27.993Z,20.70
2018-11-26T11:26:56.063Z,20.13
2018-11-26T11:29:24.130Z,20.17
2018-11-26T11:31:52.223Z,22.10
2018-11-26T11:34:20.305Z,20.83
2018-11-26T11:36:48.375Z,21.50
2018-11-26T11:39:16.416Z,21.47
2018-11-26T11:41:44.462Z,23.20
2018-11-26T11:44:12.535Z,21.97
2018-11-26T11:46:40.570Z,23.40
2018-11-26T11:49:08.630Z,22.37
2018-11-26T11:51:36.728Z,23.87
2018-11-26T11:54:04.980Z,23.70
2018-11-26T11:56:33.025Z,24.07
2018-11-26T11:59:01.059Z,24.77
2018-11-26T12:01:29.101Z,26.87
2018-11-26T12:03:57.124Z,27.23
2018-11-26T12:06:25.200Z,24.83
2018-11-26T12:08:53.236Z,26.23
2018-11-26T12:11:21.304Z,27.53
2018-11-26T12:13:49.324Z,28.10
2018-11-26T12:16:17.407Z,27.67
2018-11-26T12:18:45.456Z,28.97
2018-11-26T12:21:13.508Z,27.13
2018-11-26T12:23:41.550Z,26.67
2018-11-26T12:26:09.597Z,29.37
2018-11-26T12:28:37.660Z,28.70
2018-11-26T12:31:06.069Z,29.87
2018-11-26T12:33:34.114Z,29.03
2018-11-26T12:36:02.193Z,29.03
2018-11-26T12:38:30.262Z,26.37
2018-11-26T12:40:58.284Z,27.83
2018-11-26T12:43:26.349Z,29.73
2018-11-26T12:45:54.423Z,34.50
2018-11-26T12:48:22.469Z,25.77
2018-11-26T12:50:50.517Z,30.97
2018-11-26T12:53:18.566Z,27.97
2018-11-26T12:55:46.614Z,31.20
2018-11-26T12:58:14.686Z,32.17
2018-11-26T13:00:42.740Z,30.10
2018-11-26T13:03:13.346Z,29.90
2018-11-26T13:05:41.526Z,27.57
2018-11-26T13:08:09.558Z,31.97
2018-11-26T13:10:38.058Z,32.83
2018-11-26T13:13:07.448Z,29.33
2018-11-26T13:15:35.499Z,30.57
2018-11-26T13:18:03.564Z,31.63
2018-11-26T13:20:31.754Z,32.53
2018-11-26T13:22:59.787Z,30.80
2018-11-26T13:25:29.107Z,31.23
2018-11-26T13:27:59.260Z,30.87
2018-11-26T13:30:32.567Z,29.50
2018-11-26T13:33:01.860Z,29.67
2018-11-26T13:35:29.902Z,28.87
2018-11-26T13:37:58.128Z,29.47
2018-11-26T13:40:25.978Z,30.27
2018-11-26T13:42:54.057Z,29.50
2018-11-26T13:45:25.444Z,30.77
2018-11-26T13:47:53.486Z,30.67
2018-11-26T13:50:23.065Z,32.00
2018-11-26T13:52:51.048Z,30.90
2018-11-26T13:55:19.084Z,31.90
2018-11-26T13:57:47.151Z,31.83
2018-11-26T14:00:16.136Z,31.80
2018-11-26T14:02:44.205Z,29.90
2018-11-26T14:05:16.391Z,29.87
2018-11-26T14:07:44.904Z,32.10
2018-11-26T14:10:21.645Z,33.27
2018-11-26T14:12:52.234Z,31.13
2018-11-26T14:15:20.276Z,28.47
2018-11-26T14:17:48.296Z,30.17
2018-11-26T14:20:16.793Z,31.33
2018-11-26T14:22:44.853Z,31.53
2018-11-26T14:25:15.713Z,31.97
2018-11-26T14:27:44.309Z,28.70
2018-11-26T14:30:14.840Z,28.23
2018-11-26T14:32:42.920Z,28.60
2018-11-26T14:35:12.120Z,29.30
2018-11-26T14:37:39.044Z,25.30
2018-11-26T14:40:12.872Z,22.90
2018-11-26T14:42:40.951Z,24.63
2018-11-26T14:45:10.867Z,23.87
2018-11-26T14:47:38.964Z,23.53
2018-11-26T14:50:11.730Z,25.80
2018-11-26T14:52:40.210Z,26.23
2018-11-26T14:55:12.187Z,26.60
2018-11-26T14:57:40.262Z,24.13
2018-11-26T15:00:11.205Z,25.70
2018-11-26T15:02:39.348Z,26.13
2018-11-26T15:05:07.424Z,27.83
2018-11-26T15:07:35.496Z,28.23
2018-11-26T15:10:04.190Z,26.07
2018-11-26T15:12:32.224Z,27.23
2018-11-26T15:15:00.276Z,27.80
2018-11-26T15:17:28.341Z,27.30
2018-11-26T15:19:56.408Z,28.27
2018-11-26T15:22:24.479Z,26.60
2018-11-26T15:24:52.548Z,27.60
2018-11-26T15:27:20.615Z,28.13
2018-11-26T15:29:48.668Z,29.93
2018-11-26T15:32:16.762Z,30.77
2018-11-26T15:34:44.814Z,30.23
2018-11-26T15:37:12.860Z,29.90
2018-11-26T15:39:40.912Z,23.70
2018-11-26T15:42:08.941Z,26.10
2018-11-26T15:44:36.994Z,26.50
2018-11-26T15:47:05.273Z,24.17
2018-11-26T15:49:33.322Z,25.90
2018-11-26T15:52:01.350Z,27.20
2018-11-26T15:54:29.426Z,26.93
2018-11-26T15:56:57.452Z,28.33
2018-11-26T15:59:25.666Z,24.93
2018-11-26T16:01:53.696Z,25.97
2018-11-26T16:04:21.749Z,24.13
2018-11-26T16:06:49.801Z,26.33
2018-11-26T16:09:17.868Z,26.40
2018-11-26T16:11:45.934Z,24.97
2018-11-26T16:14:14.056Z,26.53
2018-11-26T16:16:42.096Z,34.97
2018-11-26T16:19:10.158Z,28.43
2018-11-26T16:21:38.158Z,26.37
2018-11-26T16:24:06.756Z,28.00
2018-11-26T16:26:34.796Z,34.80
2018-11-26T16:29:02.832Z,37.93
2018-11-26T16:31:31.153Z,28.07
2018-11-26T16:33:59.214Z,28.13
2018-11-26T16:36:27.268Z,29.53
2018-11-26T16:38:55.354Z,27.97
2018-11-26T16:41:23.416Z,32.20
2018-11-26T16:43:51.509Z,33.93
2018-11-26T16:46:19.553Z,40.47
2018-11-26T16:48:47.656Z,39.97
2018-11-26T16:51:15.724Z,39.40
2018-11-26T16:53:43.780Z,32.03
2018-11-26T16:56:11.845Z,39.57
2018-11-26T16:58:39.934Z,43.63
2018-11-26T17:01:08.006Z,32.93
2018-11-26T17:03:36.064Z,35.77
2018-11-26T17:06:04.288Z,36.60
2018-11-26T17:08:32.360Z,34.43
2018-11-26T17:11:00.426Z,34.27
2018-11-26T17:13:28.495Z,34.77
2018-11-26T17:15:56.548Z,37.10
2018-11-26T17:18:24.590Z,39.73
2018-11-26T17:20:52.629Z,38.57
2018-11-26T17:23:20.695Z,35.33
2018-11-26T17:25:48.754Z,34.20
2018-11-26T17:28:16.852Z,33.97
2018-11-26T17:30:44.896Z,33.80
2018-11-26T17:33:13.119Z,33.83
2018-11-26T17:35:41.169Z,34.17
2018-11-26T17:38:09.265Z,35.40
2018-11-26T17:40:38.326Z,34.77
2018-11-26T17:43:07.295Z,33.77
2018-11-26T17:45:35.702Z,33.73
2018-11-26T17:48:03.739Z,32.53
2018-11-26T17:50:39.968Z,38.13
2018-11-26T17:53:10.954Z,53.33
2018-11-26T17:55:51.480Z,55.33
2018-11-26T17:58:20.820Z,36.20
2018-11-26T18:00:54.228Z,36.47
2018-11-26T18:03:22.277Z,34.70
2018-11-26T18:05:50.346Z,37.43
2018-11-26T18:08:18.957Z,37.70
2018-11-26T18:10:47.054Z,39.43
2018-11-26T18:13:15.125Z,41.50
2018-11-26T18:15:43.178Z,40.63
2018-11-26T18:18:14.734Z,35.00
2018-11-26T18:20:42.885Z,32.67
2018-11-26T18:23:11.290Z,33.10
2018-11-26T18:25:39.545Z,31.50
2018-11-26T18:28:10.348Z,31.73
2018-11-26T18:30:41.501Z,33.43
2018-11-26T18:33:09.609Z,33.90
2018-11-26T18:35:37.974Z,33.73
2018-11-26T18:38:06.751Z,33.53
2018-11-26T18:40:35.819Z,32.67
2018-11-26T18:43:03.845Z,33.87
2018-11-26T18:45:31.904Z,32.23
2018-11-26T18:47:59.972Z,34.57
2018-11-26T18:50:28.071Z,32.37
2018-11-26T18:52:56.124Z,33.47
2018-11-26T18:55:24.227Z,33.87
2018-11-26T18:57:52.371Z,34.33
2018-11-26T19:00:23.610Z,33.67
2018-11-26T19:02:52.498Z,33.67
2018-11-26T19:05:20.943Z,43.23
2018-11-26T19:07:48.985Z,40.77
2018-11-26T19:10:19.297Z,35.57
2018-11-26T19:13:21.824Z,47.57
2018-11-26T19:15:50.859Z,37.17
2018-11-26T19:18:25.465Z,35.73
2018-11-26T19:20:53.857Z,36.40
2018-11-26T19:23:22.454Z,35.60
2018-11-26T19:25:51.543Z,37.03
2018-11-26T19:28:20.478Z,36.13
2018-11-26T19:30:47.661Z,34.40
2018-11-26T19:33:15.701Z,36.20
2018-11-26T19:35:43.772Z,36.87
2018-11-26T19:38:11.881Z,36.67
2018-11-26T19:40:40.382Z,35.37
2018-11-26T19:43:08.810Z,35.00
2018-11-26T19:45:37.328Z,39.37
2018-11-26T19:48:06.031Z,42.60
2018-11-26T19:50:34.296Z,37.60
2018-11-26T19:53:02.793Z,44.63
2018-11-26T19:55:30.920Z,39.07
2018-11-26T19:57:59.038Z,80.20
2018-11-26T20:00:28.293Z,101.30
2018-11-26T20:03:32.586Z,97.53
2018-11-26T20:06:13.115Z,52.47
2018-11-26T20:08:41.922Z,37.03
2018-11-26T20:11:10.710Z,36.70
2018-11-26T20:13:38.776Z,38.13
2018-11-26T20:16:12.977Z,37.33
2018-11-26T20:18:41.057Z,38.43
2018-11-26T20:21:09.136Z,37.70
2018-11-26T20:23:37.294Z,38.43
2018-11-26T20:26:05.872Z,40.53
2018-11-26T20:28:33.949Z,37.87
2018-11-26T20:31:02.034Z,38.93
2018-11-26T20:33:30.099Z,37.70
2018-11-26T20:35:58.191Z,36.87
2018-11-26T20:38:26.276Z,38.90
2018-11-26T20:40:54.376Z,37.50
2018-11-26T20:43:22.479Z,38.23
2018-11-26T20:45:50.718Z,36.03
2018-11-26T20:48:18.798Z,35.87
2018-11-26T20:50:50.413Z,35.63
2018-11-26T20:53:20.107Z,36.13
2018-11-26T20:55:48.221Z,37.93
2018-11-26T20:58:16.299Z,37.37
2018-11-26T21:00:44.636Z,35.50
2018-11-26T21:03:12.732Z,35.10
2018-11-26T21:05:41.488Z,34.87
2018-11-26T21:08:09.570Z,34.97
2018-11-26T21:10:37.667Z,35.53
2018-11-26T21:13:05.821Z,34.47
2018-11-26T21:15:33.885Z,33.77
2018-11-26T21:18:06.067Z,32.57
2018-11-26T21:20:50.781Z,31.47
2018-11-26T21:23:21.341Z,30.63
2018-11-26T21:25:49.610Z,32.30
2018-11-26T21:28:17.673Z,33.43
2018-11-26T21:30:45.882Z,33.50
2018-11-26T21:33:13.852Z,33.53
2018-11-26T21:35:41.896Z,33.70
2018-11-26T21:38:10.898Z,34.23
2018-11-26T21:40:39.701Z,33.90
2018-11-26T21:43:08.491Z,32.33
2018-11-26T21:45:46.270Z,34.83
2018-11-26T21:48:14.332Z,35.70
2018-11-26T21:50:42.412Z,37.83
2018-11-26T21:53:10.483Z,37.93
2018-11-26T21:55:38.592Z,36.47
2018-11-26T21:58:06.874Z,35.97
2018-11-26T22:00:35.334Z,37.47
2018-11-26T22:03:08.956Z,37.93
2018-11-26T22:05:38.041Z,39.50
2018-11-26T22:08:06.749Z,37.87
2018-11-26T22:10:35.542Z,39.73
2018-11-26T22:13:03.614Z,38.93
2018-11-26T22:15:31.923Z,39.10
2018-11-26T22:18:00.029Z,38.33
2018-11-26T22:20:29.416Z,37.57
2018-11-26T22:22:57.492Z,37.07
2018-11-26T22:25:25.569Z,38.63
2018-11-26T22:27:54.078Z,39.57
2018-11-26T22:30:26.356Z,38.27
2018-11-26T22:32:54.499Z,38.27
2018-11-26T22:35:22.587Z,37.53
2018-11-26T22:37:50.760Z,38.80
2018-11-26T22:40:19.685Z,37.97
2018-11-26T22:42:47.813Z,39.60
2018-11-26T22:45:16.937Z,38.07
2018-11-26T22:47:53.964Z,39.40
2018-11-26T22:50:22.044Z,38.57
2018-11-26T22:52:50.098Z,37.70
2018-11-26T22:55:18.178Z,35.03
2018-11-26T22:57:46.243Z,35.77
2018-11-26T23:00:15.668Z,36.87
2018-11-26T23:02:43.751Z,38.63
2018-11-26T23:05:11.822Z,37.43
2018-11-26T23:07:39.887Z,38.03
2018-11-26T23:10:09.101Z,38.23
2018-11-26T23:12:37.175Z,38.73
2018-11-26T23:15:08.302Z,36.83
2018-11-26T23:17:36.400Z,37.50
2018-11-26T23:20:07.073Z,36.27
2018-11-26T23:22:35.135Z,37.20
2018-11-26T23:25:03.199Z,37.83
2018-11-26T23:27:31.248Z,38.07
2018-11-26T23:29:59.389Z,37.07
2018-11-26T23:32:27.420Z,36.20
2018-11-26T23:34:55.488Z,35.13
2018-11-26T23:37:23.550Z,36.47
2018-11-26T23:39:51.620Z,35.10
2018-11-26T23:42:19.681Z,36.23
2018-11-26T23:44:47.732Z,34.20
2018-11-26T23:47:15.810Z,36.97
2018-11-26T23:49:43.972Z,36.10
2018-11-26T23:52:12.027Z,36.13
2018-11-26T23:54:40.124Z,34.03
2018-11-26T23:57:08.201Z,37.13
2018-11-26T23:59:36.284Z,36.70
